sensor_id;sensor_type;location;lat;lon;timestamp;P1;durP1;ratioP1;P2;durP2;ratioP2
35907;SDS011;22003;50.320;8.054;2022-12-16T05:01:24;60.03;;;19.93;;
35907;SDS011;22003;50.320;8.054;2022-12-16T05:04:08;64.97;;;21.37;;
35907;SDS011;22003;50.320;8.054;2022-12-16T05:06:52;75.23;;;20.83;;
35907;SDS011;22003;50.320;8.054;2022-12-16T05:09:36;62.70;;;19.50;;
35907;SDS011;22003;50.320;8.054;2022-12-16T05:12:20;71.85;;;20.85;;
35907;SDS011;22003;50.320;8.054;2022-12-16T05:15:04;81.60;;;20.27;;
35907;SDS011;22003;50.320;8.054;2022-12-16T05:17:48;63.30;;;20.13;;
35907;SDS011;22003;50.320;8.054;2022-12-16T05:20:32;89.87;;;20.63;;
35907;SDS011;22003;50.320;8.054;2022-12-16T05:23:16;68.30;;;20.50;;
35907;SDS011;22003;50.320;8.054;2022-12-16T05:26:00;89.40;;;21.87;;
35907;SDS011;22003;50.320;8.054;2022-12-16T05:28:44;59.27;;;19.57;;
35907;SDS011;22003;50.320;8.054;2022-12-16T05:31:28;62.10;;;20.07;;
35907;SDS011;22003;50.320;8.054;2022-12-16T05:34:12;68.70;;;19.80;;
35907;SDS011;22003;50.320;8.054;2022-12-16T05:36:56;67.93;;;19.30;;
35907;SDS011;22003;50.320;8.054;2022-12-16T05:39:40;86.73;;;20.67;;
35907;SDS011;22003;50.320;8.054;2022-12-16T05:42:24;71.43;;;22.07;;
35907;SDS011;22003;50.320;8.054;2022-12-16T05:45:07;66.03;;;20.03;;
35907;SDS011;22003;50.320;8.054;2022-12-16T05:47:51;68.43;;;19.87;;
35907;SDS011;22003;50.320;8.054;2022-12-16T05:50:35;54.13;;;19.37;;
35907;SDS011;22003;50.320;8.054;2022-12-16T05:53:19;62.20;;;19.00;;
35907;SDS011;22003;50.320;8.054;2022-12-16T05:56:03;58.63;;;18.23;;
35907;SDS011;22003;50.320;8.054;2022-12-16T05:58:47;67.20;;;20.10;;
35907;SDS011;22003;50.320;8.054;2022-12-16T06:01:31;77.63;;;20.90;;
35907;SDS011;22003;50.320;8.054;2022-12-16T06:04:15;64.27;;;20.27;;
35907;SDS011;22003;50.320;8.054;2022-12-16T06:06:59;65.57;;;20.60;;
35907;SDS011;22003;50.320;8.054;2022-12-16T06:09:43;62.03;;;19.50;;
35907;SDS011;22003;50.320;8.054;2022-12-16T06:12:27;65.27;;;20.03;;
35907;SDS011;22003;50.320;8.054;2022-12-16T06:15:11;77.00;;;20.40;;
35907;SDS011;22003;50.320;8.054;2022-12-16T06:17:55;67.77;;;20.80;;
35907;SDS011;22003;50.320;8.054;2022-12-16T06:20:39;59.37;;;18.87;;
35907;SDS011;22003;50.320;8.054;2022-12-16T06:23:23;72.63;;;20.07;;
35907;SDS011;22003;50.320;8.054;2022-12-16T06:26:07;59.57;;;17.63;;
35907;SDS011;22003;50.320;8.054;2022-12-16T06:28:51;58.50;;;19.63;;
35907;SDS011;22003;50.320;8.054;2022-12-16T06:31:35;58.00;;;19.00;;
35907;SDS011;22003;50.320;8.054;2022-12-16T06:34:19;67.60;;;19.07;;
35907;SDS011;22003;50.320;8.054;2022-12-16T06:37:03;70.20;;;17.87;;
35907;SDS011;22003;50.320;8.054;2022-12-16T06:39:47;77.03;;;19.13;;
35907;SDS011;22003;50.320;8.054;2022-12-16T06:42:31;61.60;;;19.37;;
35907;SDS011;22003;50.320;8.054;2022-12-16T06:45:15;58.73;;;18.33;;
35907;SDS011;22003;50.320;8.054;2022-12-16T06:47:59;50.97;;;17.27;;
35907;SDS011;22003;50.320;8.054;2022-12-16T06:50:43;71.23;;;18.27;;
35907;SDS011;22003;50.320;8.054;2022-12-16T06:53:27;54.40;;;17.50;;
35907;SDS011;22003;50.320;8.054;2022-12-16T06:56:11;77.00;;;19.00;;
35907;SDS011;22003;50.320;8.054;2022-12-16T06:58:55;61.43;;;19.00;;
35907;SDS011;22003;50.320;8.054;2022-12-16T07:01:39;64.37;;;18.30;;
35907;SDS011;22003;50.320;8.054;2022-12-16T07:04:23;66.50;;;19.77;;
35907;SDS011;22003;50.320;8.054;2022-12-16T07:07:07;69.50;;;20.63;;
35907;SDS011;22003;50.320;8.054;2022-12-16T07:09:51;77.10;;;19.93;;
35907;SDS011;22003;50.320;8.054;2022-12-16T07:12:35;70.27;;;19.13;;
35907;SDS011;22003;50.320;8.054;2022-12-16T07:15:19;68.97;;;21.50;;
35907;SDS011;22003;50.320;8.054;2022-12-16T07:18:03;64.57;;;20.67;;
35907;SDS011;22003;50.320;8.054;2022-12-16T07:20:47;64.50;;;22.27;;
35907;SDS011;22003;50.320;8.054;2022-12-16T07:23:31;67.47;;;21.57;;
35907;SDS011;22003;50.320;8.054;2022-12-16T07:26:15;68.47;;;21.80;;
35907;SDS011;22003;50.320;8.054;2022-12-16T07:28:59;84.77;;;26.40;;
35907;SDS011;22003;50.320;8.054;2022-12-16T07:31:43;88.83;;;25.83;;
35907;SDS011;22003;50.320;8.054;2022-12-16T07:34:27;79.63;;;25.47;;
35907;SDS011;22003;50.320;8.054;2022-12-16T07:37:11;77.00;;;24.30;;
35907;SDS011;22003;50.320;8.054;2022-12-16T07:39:55;68.83;;;22.80;;
35907;SDS011;22003;50.320;8.054;2022-12-16T07:42:40;72.77;;;24.00;;
35907;SDS011;22003;50.320;8.054;2022-12-16T07:45:24;56.20;;;19.60;;
35907;SDS011;22003;50.320;8.054;2022-12-16T07:48:08;67.83;;;23.33;;
35907;SDS011;22003;50.320;8.054;2022-12-16T07:50:52;56.83;;;19.40;;
35907;SDS011;22003;50.320;8.054;2022-12-16T07:53:36;56.50;;;20.63;;
35907;SDS011;22003;50.320;8.054;2022-12-16T07:56:20;57.73;;;22.50;;
35907;SDS011;22003;50.320;8.054;2022-12-16T07:59:04;71.40;;;24.53;;
35907;SDS011;22003;50.320;8.054;2022-12-16T08:01:48;57.67;;;20.57;;
35907;SDS011;22003;50.320;8.054;2022-12-16T08:04:32;66.77;;;22.17;;
35907;SDS011;22003;50.320;8.054;2022-12-16T08:07:16;46.67;;;17.47;;
35907;SDS011;22003;50.320;8.054;2022-12-16T08:10:00;56.13;;;19.50;;
35907;SDS011;22003;50.320;8.054;2022-12-16T08:12:44;60.13;;;19.53;;
35907;SDS011;22003;50.320;8.054;2022-12-16T08:15:28;58.90;;;19.67;;
35907;SDS011;22003;50.320;8.054;2022-12-16T08:18:12;69.93;;;23.27;;
35907;SDS011;22003;50.320;8.054;2022-12-16T08:20:56;62.43;;;20.67;;
35907;SDS011;22003;50.320;8.054;2022-12-16T08:23:40;51.30;;;17.80;;
35907;SDS011;22003;50.320;8.054;2022-12-16T08:26:23;58.10;;;18.87;;
35907;SDS011;22003;50.320;8.054;2022-12-16T08:29:08;56.43;;;19.23;;
35907;SDS011;22003;50.320;8.054;2022-12-16T08:31:53;66.77;;;24.77;;
35907;SDS011;22003;50.320;8.054;2022-12-16T08:34:37;55.87;;;19.53;;
35907;SDS011;22003;50.320;8.054;2022-12-16T08:37:21;56.80;;;18.07;;
35907;SDS011;22003;50.320;8.054;2022-12-16T08:40:05;55.50;;;18.97;;
35907;SDS011;22003;50.320;8.054;2022-12-16T08:42:49;52.77;;;16.67;;
35907;SDS011;22003;50.320;8.054;2022-12-16T08:45:33;64.50;;;21.47;;
35907;SDS011;22003;50.320;8.054;2022-12-16T08:48:18;56.03;;;19.27;;
35907;SDS011;22003;50.320;8.054;2022-12-16T08:51:05;55.73;;;19.40;;
35907;SDS011;22003;50.320;8.054;2022-12-16T08:53:49;50.67;;;18.77;;
35907;SDS011;22003;50.320;8.054;2022-12-16T08:56:34;52.30;;;17.83;;
35907;SDS011;22003;50.320;8.054;2022-12-16T08:59:18;56.97;;;19.47;;
35907;SDS011;22003;50.320;8.054;2022-12-16T09:02:02;55.73;;;18.93;;
35907;SDS011;22003;50.320;8.054;2022-12-16T09:04:46;53.25;;;18.85;;
35907;SDS011;22003;50.320;8.054;2022-12-16T09:07:30;51.07;;;18.77;;
35907;SDS011;22003;50.320;8.054;2022-12-16T09:10:14;55.30;;;17.27;;
35907;SDS011;22003;50.320;8.054;2022-12-16T09:13:10;48.33;;;18.43;;
35907;SDS011;22003;50.320;8.054;2022-12-16T09:15:55;57.33;;;18.97;;
35907;SDS011;22003;50.320;8.054;2022-12-16T09:18:39;53.93;;;18.37;;
35907;SDS011;22003;50.320;8.054;2022-12-16T09:21:23;59.47;;;19.00;;
35907;SDS011;22003;50.320;8.054;2022-12-16T09:24:07;52.23;;;16.87;;
35907;SDS011;22003;50.320;8.054;2022-12-16T09:26:51;61.58;;;19.98;;
35907;SDS011;22003;50.320;8.054;2022-12-16T09:29:35;58.50;;;20.15;;
35907;SDS011;22003;50.320;8.054;2022-12-16T09:32:23;58.25;;;19.15;;
35907;SDS011;22003;50.320;8.054;2022-12-16T09:35:07;112.70;;;35.75;;
35907;SDS011;22003;50.320;8.054;2022-12-16T09:37:51;64.43;;;25.92;;
35907;SDS011;22003;50.320;8.054;2022-12-16T09:40:42;61.30;;;20.48;;
35907;SDS011;22003;50.320;8.054;2022-12-16T09:43:34;56.70;;;18.67;;
35907;SDS011;22003;50.320;8.054;2022-12-16T09:49:50;53.50;;;17.58;;
35907;SDS011;22003;50.320;8.054;2022-12-16T09:52:56;61.67;;;17.40;;
35907;SDS011;22003;50.320;8.054;2022-12-16T09:55:43;58.67;;;18.80;;
35907;SDS011;22003;50.320;8.054;2022-12-16T09:58:29;48.35;;;17.58;;
35907;SDS011;22003;50.320;8.054;2022-12-16T10:01:19;51.55;;;17.48;;
35907;SDS011;22003;50.320;8.054;2022-12-16T10:04:04;53.85;;;20.13;;
35907;SDS011;22003;50.320;8.054;2022-12-16T10:06:53;43.13;;;15.63;;
35907;SDS011;22003;50.320;8.054;2022-12-16T10:09:46;49.97;;;16.75;;
35907;SDS011;22003;50.320;8.054;2022-12-16T10:15:55;51.53;;;16.80;;
35907;SDS011;22003;50.320;8.054;2022-12-16T10:19:01;52.35;;;17.33;;
35907;SDS011;22003;50.320;8.054;2022-12-16T10:28:16;50.28;;;18.25;;
35907;SDS011;22003;50.320;8.054;2022-12-16T10:31:02;59.35;;;19.17;;
35907;SDS011;22003;50.320;8.054;2022-12-16T10:33:56;49.08;;;17.95;;
35907;SDS011;22003;50.320;8.054;2022-12-16T10:36:40;60.55;;;19.00;;
35907;SDS011;22003;50.320;8.054;2022-12-16T10:39:29;50.40;;;18.33;;
35907;SDS011;22003;50.320;8.054;2022-12-16T10:42:23;57.80;;;18.83;;
35907;SDS011;22003;50.320;8.054;2022-12-16T10:45:23;55.47;;;18.85;;
35907;SDS011;22003;50.320;8.054;2022-12-16T10:48:11;57.83;;;18.65;;
35907;SDS011;22003;50.320;8.054;2022-12-16T10:50:57;62.08;;;17.98;;
35907;SDS011;22003;50.320;8.054;2022-12-16T10:53:41;70.70;;;20.65;;
35907;SDS011;22003;50.320;8.054;2022-12-16T10:59:15;54.45;;;18.38;;
35907;SDS011;22003;50.320;8.054;2022-12-16T11:02:00;64.90;;;18.13;;
35907;SDS011;22003;50.320;8.054;2022-12-16T11:04:47;51.20;;;17.73;;
35907;SDS011;22003;50.320;8.054;2022-12-16T11:10:27;60.33;;;19.05;;
35907;SDS011;22003;50.320;8.054;2022-12-16T11:13:32;44.47;;;16.73;;
35907;SDS011;22003;50.320;8.054;2022-12-16T11:16:27;53.38;;;16.98;;
35907;SDS011;22003;50.320;8.054;2022-12-16T11:19:19;61.20;;;19.02;;
35907;SDS011;22003;50.320;8.054;2022-12-16T11:22:14;47.85;;;16.88;;
35907;SDS011;22003;50.320;8.054;2022-12-16T11:28:02;48.13;;;17.65;;
35907;SDS011;22003;50.320;8.054;2022-12-16T11:30:49;44.05;;;16.63;;
35907;SDS011;22003;50.320;8.054;2022-12-16T11:33:36;41.60;;;15.77;;
35907;SDS011;22003;50.320;8.054;2022-12-16T11:36:22;43.58;;;15.65;;
35907;SDS011;22003;50.320;8.054;2022-12-16T11:39:12;46.72;;;18.10;;
35907;SDS011;22003;50.320;8.054;2022-12-16T11:41:59;54.15;;;19.38;;
35907;SDS011;22003;50.320;8.054;2022-12-16T11:44:45;55.00;;;21.08;;
35907;SDS011;22003;50.320;8.054;2022-12-16T11:47:47;36.90;;;15.07;;
35907;SDS011;22003;50.320;8.054;2022-12-16T11:50:40;26.50;;;10.60;;
35907;SDS011;22003;50.320;8.054;2022-12-16T11:53:53;23.40;;;9.20;;
35907;SDS011;22003;50.320;8.054;2022-12-16T11:56:42;24.65;;;8.88;;
35907;SDS011;22003;50.320;8.054;2022-12-16T11:59:41;19.35;;;8.10;;
35907;SDS011;22003;50.320;8.054;2022-12-16T12:02:29;18.83;;;8.10;;
35907;SDS011;22003;50.320;8.054;2022-12-16T12:05:20;15.52;;;7.50;;
35907;SDS011;22003;50.320;8.054;2022-12-16T12:08:11;22.70;;;7.78;;
35907;SDS011;22003;50.320;8.054;2022-12-16T12:11:39;23.40;;;8.23;;
35907;SDS011;22003;50.320;8.054;2022-12-16T12:17:31;17.42;;;7.78;;
35907;SDS011;22003;50.320;8.054;2022-12-16T12:20:36;20.42;;;8.15;;
35907;SDS011;22003;50.320;8.054;2022-12-16T12:27:13;18.58;;;8.30;;
35907;SDS011;22003;50.320;8.054;2022-12-16T12:43:14;19.08;;;8.50;;
35907;SDS011;22003;50.320;8.054;2022-12-16T12:46:14;19.15;;;7.95;;
35907;SDS011;22003;50.320;8.054;2022-12-16T12:49:23;19.02;;;7.82;;
35907;SDS011;22003;50.320;8.054;2022-12-16T12:55:42;18.83;;;9.18;;
35907;SDS011;22003;50.320;8.054;2022-12-16T12:58:30;17.98;;;7.95;;
35907;SDS011;22003;50.320;8.054;2022-12-16T13:01:17;19.17;;;7.57;;
35907;SDS011;22003;50.320;8.054;2022-12-16T13:04:11;17.38;;;7.38;;
35907;SDS011;22003;50.320;8.054;2022-12-16T13:06:59;18.80;;;7.80;;
35907;SDS011;22003;50.320;8.054;2022-12-16T13:09:44;16.05;;;7.47;;
35907;SDS011;22003;50.320;8.054;2022-12-16T13:12:28;17.08;;;8.10;;
35907;SDS011;22003;50.320;8.054;2022-12-16T13:15:32;15.23;;;6.75;;
35907;SDS011;22003;50.320;8.054;2022-12-16T13:18:19;18.13;;;8.00;;
35907;SDS011;22003;50.320;8.054;2022-12-16T13:24:31;14.95;;;7.75;;
35907;SDS011;22003;50.320;8.054;2022-12-16T13:27:16;17.73;;;7.75;;
35907;SDS011;22003;50.320;8.054;2022-12-16T13:30:03;15.15;;;8.00;;
35907;SDS011;22003;50.320;8.054;2022-12-16T13:33:02;16.80;;;8.25;;
35907;SDS011;22003;50.320;8.054;2022-12-16T13:35:53;15.25;;;6.70;;
35907;SDS011;22003;50.320;8.054;2022-12-16T13:38:45;18.40;;;7.32;;
35907;SDS011;22003;50.320;8.054;2022-12-16T13:50:34;16.08;;;7.05;;
35907;SDS011;22003;50.320;8.054;2022-12-16T13:53:33;15.95;;;6.90;;
35907;SDS011;22003;50.320;8.054;2022-12-16T13:56:25;19.83;;;8.43;;
35907;SDS011;22003;50.320;8.054;2022-12-16T13:59:17;19.08;;;8.93;;
35907;SDS011;22003;50.320;8.054;2022-12-16T14:05:28;33.92;;;14.43;;
35907;SDS011;22003;50.320;8.054;2022-12-16T14:08:18;51.38;;;18.08;;
35907;SDS011;22003;50.320;8.054;2022-12-16T14:11:06;40.25;;;16.88;;
35907;SDS011;22003;50.320;8.054;2022-12-16T14:14:10;37.53;;;16.80;;
35907;SDS011;22003;50.320;8.054;2022-12-16T14:17:02;16.45;;;8.48;;
35907;SDS011;22003;50.320;8.054;2022-12-16T14:25:35;17.05;;;7.53;;
35907;SDS011;22003;50.320;8.054;2022-12-16T14:31:20;16.65;;;8.13;;
35907;SDS011;22003;50.320;8.054;2022-12-16T14:34:23;18.50;;;7.45;;
35907;SDS011;22003;50.320;8.054;2022-12-16T14:37:13;13.82;;;6.60;;
35907;SDS011;22003;50.320;8.054;2022-12-16T14:40:24;15.25;;;8.10;;
35907;SDS011;22003;50.320;8.054;2022-12-16T14:43:15;16.98;;;7.80;;
35907;SDS011;22003;50.320;8.054;2022-12-16T14:46:05;15.65;;;6.80;;
35907;SDS011;22003;50.320;8.054;2022-12-16T14:49:25;15.77;;;8.10;;
35907;SDS011;22003;50.320;8.054;2022-12-16T14:52:19;12.48;;;6.82;;
35907;SDS011;22003;50.320;8.054;2022-12-16T14:55:15;16.88;;;7.63;;
35907;SDS011;22003;50.320;8.054;2022-12-16T14:58:04;15.35;;;7.03;;
35907;SDS011;22003;50.320;8.054;2022-12-16T15:00:52;19.50;;;8.27;;
35907;SDS011;22003;50.320;8.054;2022-12-16T15:03:38;18.90;;;8.77;;
35907;SDS011;22003;50.320;8.054;2022-12-16T15:06:28;14.20;;;7.50;;
35907;SDS011;22003;50.320;8.054;2022-12-16T15:09:28;20.90;;;8.30;;
35907;SDS011;22003;50.320;8.054;2022-12-16T15:12:17;21.25;;;9.30;;
35907;SDS011;22003;50.320;8.054;2022-12-16T15:15:06;23.65;;;9.60;;
35907;SDS011;22003;50.320;8.054;2022-12-16T15:17:55;24.77;;;10.05;;
35907;SDS011;22003;50.320;8.054;2022-12-16T15:20:48;38.13;;;16.95;;
35907;SDS011;22003;50.320;8.054;2022-12-16T15:23:37;27.15;;;11.93;;
35907;SDS011;22003;50.320;8.054;2022-12-16T15:26:24;27.10;;;10.23;;
35907;SDS011;22003;50.320;8.054;2022-12-16T15:35:08;22.00;;;11.27;;
35907;SDS011;22003;50.320;8.054;2022-12-16T15:37:53;20.23;;;9.77;;
35907;SDS011;22003;50.320;8.054;2022-12-16T15:40:38;20.17;;;8.68;;
35907;SDS011;22003;50.320;8.054;2022-12-16T15:43:31;29.95;;;15.70;;
35907;SDS011;22003;50.320;8.054;2022-12-16T15:46:16;37.58;;;23.42;;
35907;SDS011;22003;50.320;8.054;2022-12-16T15:49:00;31.67;;;20.15;;
35907;SDS011;22003;50.320;8.054;2022-12-16T15:51:45;38.42;;;18.02;;
35907;SDS011;22003;50.320;8.054;2022-12-16T15:54:30;27.27;;;16.35;;
35907;SDS011;22003;50.320;8.054;2022-12-16T15:57:24;30.63;;;19.50;;
35907;SDS011;22003;50.320;8.054;2022-12-16T16:00:25;24.83;;;15.38;;
35907;SDS011;22003;50.320;8.054;2022-12-16T16:03:29;31.23;;;14.23;;
35907;SDS011;22003;50.320;8.054;2022-12-16T16:06:17;27.60;;;12.50;;
35907;SDS011;22003;50.320;8.054;2022-12-16T16:09:13;24.80;;;11.10;;
35907;SDS011;22003;50.320;8.054;2022-12-16T16:11:57;27.05;;;13.15;;
35907;SDS011;22003;50.320;8.054;2022-12-16T16:14:41;24.70;;;13.90;;
35907;SDS011;22003;50.320;8.054;2022-12-16T16:17:25;22.50;;;12.97;;
35907;SDS011;22003;50.320;8.054;2022-12-16T16:20:14;22.70;;;12.55;;
35907;SDS011;22003;50.320;8.054;2022-12-16T16:22:59;29.03;;;13.90;;
35907;SDS011;22003;50.320;8.054;2022-12-16T16:25:43;37.40;;;17.08;;
35907;SDS011;22003;50.320;8.054;2022-12-16T16:28:28;31.23;;;16.10;;
35907;SDS011;22003;50.320;8.054;2022-12-16T16:31:12;34.13;;;17.73;;
35907;SDS011;22003;50.320;8.054;2022-12-16T16:33:56;92.03;;;39.70;;
35907;SDS011;22003;50.320;8.054;2022-12-16T16:36:39;185.40;;;58.93;;
35907;SDS011;22003;50.320;8.054;2022-12-16T16:39:23;64.68;;;26.70;;
35907;SDS011;22003;50.320;8.054;2022-12-16T16:42:08;49.42;;;22.83;;
35907;SDS011;22003;50.320;8.054;2022-12-16T16:44:52;49.25;;;23.70;;
35907;SDS011;22003;50.320;8.054;2022-12-16T16:47:35;30.90;;;14.50;;
35907;SDS011;22003;50.320;8.054;2022-12-16T16:50:19;29.27;;;13.47;;
35907;SDS011;22003;50.320;8.054;2022-12-16T16:53:03;27.63;;;12.47;;
35907;SDS011;22003;50.320;8.054;2022-12-16T16:55:50;30.03;;;14.17;;
35907;SDS011;22003;50.320;8.054;2022-12-16T16:58:35;30.17;;;15.10;;
35907;SDS011;22003;50.320;8.054;2022-12-16T17:01:19;27.53;;;14.03;;
35907;SDS011;22003;50.320;8.054;2022-12-16T17:04:03;38.53;;;16.13;;
35907;SDS011;22003;50.320;8.054;2022-12-16T17:06:47;31.10;;;14.33;;
35907;SDS011;22003;50.320;8.054;2022-12-16T17:09:31;33.17;;;16.23;;
35907;SDS011;22003;50.320;8.054;2022-12-16T17:12:23;40.23;;;16.83;;
35907;SDS011;22003;50.320;8.054;2022-12-16T17:18:22;42.00;;;16.77;;
35907;SDS011;22003;50.320;8.054;2022-12-16T17:21:06;43.90;;;18.87;;
35907;SDS011;22003;50.320;8.054;2022-12-16T17:23:50;41.60;;;18.60;;
35907;SDS011;22003;50.320;8.054;2022-12-16T17:26:34;42.13;;;18.47;;
35907;SDS011;22003;50.320;8.054;2022-12-16T17:29:24;32.27;;;16.40;;
35907;SDS011;22003;50.320;8.054;2022-12-16T17:32:08;44.53;;;21.53;;
35907;SDS011;22003;50.320;8.054;2022-12-16T17:34:53;55.57;;;24.53;;
35907;SDS011;22003;50.320;8.054;2022-12-16T17:37:37;49.37;;;20.07;;
35907;SDS011;22003;50.320;8.054;2022-12-16T17:40:21;55.87;;;24.63;;
35907;SDS011;22003;50.320;8.054;2022-12-16T17:43:05;51.57;;;24.80;;
35907;SDS011;22003;50.320;8.054;2022-12-16T17:45:56;66.23;;;28.33;;
35907;SDS011;22003;50.320;8.054;2022-12-16T17:48:49;54.40;;;25.97;;
35907;SDS011;22003;50.320;8.054;2022-12-16T17:51:35;79.03;;;36.03;;
35907;SDS011;22003;50.320;8.054;2022-12-16T17:54:19;102.60;;;43.07;;
35907;SDS011;22003;50.320;8.054;2022-12-16T17:57:03;75.03;;;34.47;;
35907;SDS011;22003;50.320;8.054;2022-12-16T17:59:47;80.80;;;38.23;;
35907;SDS011;22003;50.320;8.054;2022-12-16T18:02:31;108.03;;;39.67;;
35907;SDS011;22003;50.320;8.054;2022-12-16T18:05:15;94.40;;;38.37;;
35907;SDS011;22003;50.320;8.054;2022-12-16T18:07:59;105.70;;;38.17;;
35907;SDS011;22003;50.320;8.054;2022-12-16T18:10:43;76.80;;;31.50;;
35907;SDS011;22003;50.320;8.054;2022-12-16T18:13:27;103.30;;;43.83;;
35907;SDS011;22003;50.320;8.054;2022-12-16T18:16:11;70.30;;;32.77;;
35907;SDS011;22003;50.320;8.054;2022-12-16T18:18:55;58.47;;;27.83;;
35907;SDS011;22003;50.320;8.054;2022-12-16T18:21:39;82.47;;;34.93;;
35907;SDS011;22003;50.320;8.054;2022-12-16T18:24:23;154.30;;;57.37;;
35907;SDS011;22003;50.320;8.054;2022-12-16T18:27:07;90.07;;;38.67;;
35907;SDS011;22003;50.320;8.054;2022-12-16T18:29:51;62.40;;;28.60;;
35907;SDS011;22003;50.320;8.054;2022-12-16T18:32:35;39.60;;;20.47;;
35907;SDS011;22003;50.320;8.054;2022-12-16T18:35:19;41.63;;;20.20;;
35907;SDS011;22003;50.320;8.054;2022-12-16T18:38:03;40.50;;;21.33;;
35907;SDS011;22003;50.320;8.054;2022-12-16T18:40:47;41.47;;;20.17;;
35907;SDS011;22003;50.320;8.054;2022-12-16T18:43:31;36.20;;;20.10;;
35907;SDS011;22003;50.320;8.054;2022-12-16T18:46:15;43.80;;;21.37;;
35907;SDS011;22003;50.320;8.054;2022-12-16T18:48:59;46.33;;;22.60;;
35907;SDS011;22003;50.320;8.054;2022-12-16T18:51:43;42.13;;;18.87;;
35907;SDS011;22003;50.320;8.054;2022-12-16T18:54:27;38.23;;;17.33;;
35907;SDS011;22003;50.320;8.054;2022-12-16T18:57:11;37.13;;;19.40;;
35907;SDS011;22003;50.320;8.054;2022-12-16T18:59:54;46.83;;;21.33;;
35907;SDS011;22003;50.320;8.054;2022-12-16T19:02:38;41.00;;;19.27;;
35907;SDS011;22003;50.320;8.054;2022-12-16T19:05:22;41.97;;;19.60;;
35907;SDS011;22003;50.320;8.054;2022-12-16T19:08:06;42.53;;;21.00;;
35907;SDS011;22003;50.320;8.054;2022-12-16T19:10:54;36.23;;;20.07;;
35907;SDS011;22003;50.320;8.054;2022-12-16T19:13:39;28.35;;;15.85;;
35907;SDS011;22003;50.320;8.054;2022-12-16T19:16:23;44.57;;;20.27;;
35907;SDS011;22003;50.320;8.054;2022-12-16T19:19:07;34.97;;;16.47;;
35907;SDS011;22003;50.320;8.054;2022-12-16T19:21:50;33.60;;;16.73;;
35907;SDS011;22003;50.320;8.054;2022-12-16T19:24:34;33.93;;;16.90;;
35907;SDS011;22003;50.320;8.054;2022-12-16T19:27:19;33.43;;;16.53;;
35907;SDS011;22003;50.320;8.054;2022-12-16T19:30:03;37.50;;;17.63;;
35907;SDS011;22003;50.320;8.054;2022-12-16T19:32:48;32.40;;;16.13;;
35907;SDS011;22003;50.320;8.054;2022-12-16T19:35:32;33.97;;;16.70;;
35907;SDS011;22003;50.320;8.054;2022-12-16T19:38:16;28.10;;;15.90;;
35907;SDS011;22003;50.320;8.054;2022-12-16T19:41:00;33.43;;;17.17;;
35907;SDS011;22003;50.320;8.054;2022-12-16T19:43:44;27.17;;;15.00;;
35907;SDS011;22003;50.320;8.054;2022-12-16T19:46:28;30.47;;;16.37;;
35907;SDS011;22003;50.320;8.054;2022-12-16T19:49:12;38.07;;;15.70;;
35907;SDS011;22003;50.320;8.054;2022-12-16T19:51:56;37.03;;;16.83;;
35907;SDS011;22003;50.320;8.054;2022-12-16T19:54:40;29.13;;;15.90;;
35907;SDS011;22003;50.320;8.054;2022-12-16T19:57:24;36.47;;;16.33;;
35907;SDS011;22003;50.320;8.054;2022-12-16T20:00:08;28.23;;;15.67;;
35907;SDS011;22003;50.320;8.054;2022-12-16T20:02:52;34.13;;;16.70;;
35907;SDS011;22003;50.320;8.054;2022-12-16T20:05:36;51.63;;;20.90;;
35907;SDS011;22003;50.320;8.054;2022-12-16T20:08:20;44.63;;;20.47;;
35907;SDS011;22003;50.320;8.054;2022-12-16T20:11:05;53.63;;;25.37;;
35907;SDS011;22003;50.320;8.054;2022-12-16T20:13:53;53.93;;;25.00;;
35907;SDS011;22003;50.320;8.054;2022-12-16T20:16:38;55.22;;;23.60;;
35907;SDS011;22003;50.320;8.054;2022-12-16T20:19:23;64.60;;;26.30;;
35907;SDS011;22003;50.320;8.054;2022-12-16T20:22:07;81.53;;;31.30;;
35907;SDS011;22003;50.320;8.054;2022-12-16T20:24:51;71.03;;;29.03;;
35907;SDS011;22003;50.320;8.054;2022-12-16T20:27:35;74.97;;;29.87;;
35907;SDS011;22003;50.320;8.054;2022-12-16T20:30:19;81.77;;;32.43;;
35907;SDS011;22003;50.320;8.054;2022-12-16T20:33:03;87.57;;;33.50;;
35907;SDS011;22003;50.320;8.054;2022-12-16T20:35:57;109.13;;;38.03;;
35907;SDS011;22003;50.320;8.054;2022-12-16T20:38:42;87.03;;;31.93;;
35907;SDS011;22003;50.320;8.054;2022-12-16T20:41:26;115.93;;;37.73;;
35907;SDS011;22003;50.320;8.054;2022-12-16T20:44:10;97.77;;;31.80;;
35907;SDS011;22003;50.320;8.054;2022-12-16T20:46:54;51.07;;;21.90;;
35907;SDS011;22003;50.320;8.054;2022-12-16T20:49:38;45.00;;;19.87;;
35907;SDS011;22003;50.320;8.054;2022-12-16T20:52:22;40.20;;;19.17;;
35907;SDS011;22003;50.320;8.054;2022-12-16T20:55:06;33.13;;;15.77;;
35907;SDS011;22003;50.320;8.054;2022-12-16T20:57:50;37.20;;;16.90;;
35907;SDS011;22003;50.320;8.054;2022-12-16T21:00:34;33.20;;;15.93;;
35907;SDS011;22003;50.320;8.054;2022-12-16T21:03:18;30.37;;;14.30;;
35907;SDS011;22003;50.320;8.054;2022-12-16T21:06:03;29.97;;;15.13;;
35907;SDS011;22003;50.320;8.054;2022-12-16T21:08:47;29.77;;;16.83;;
35907;SDS011;22003;50.320;8.054;2022-12-16T21:11:31;29.67;;;16.20;;
35907;SDS011;22003;50.320;8.054;2022-12-16T21:14:15;34.80;;;17.33;;
35907;SDS011;22003;50.320;8.054;2022-12-16T21:16:59;53.63;;;26.60;;
35907;SDS011;22003;50.320;8.054;2022-12-16T21:19:43;52.33;;;26.30;;
35907;SDS011;22003;50.320;8.054;2022-12-16T21:22:27;50.83;;;25.13;;
35907;SDS011;22003;50.320;8.054;2022-12-16T21:25:11;45.77;;;24.20;;
35907;SDS011;22003;50.320;8.054;2022-12-16T21:27:56;45.20;;;23.23;;
35907;SDS011;22003;50.320;8.054;2022-12-16T21:30:40;49.80;;;23.20;;
35907;SDS011;22003;50.320;8.054;2022-12-16T21:33:24;48.80;;;23.73;;
35907;SDS011;22003;50.320;8.054;2022-12-16T21:36:08;50.20;;;23.47;;
35907;SDS011;22003;50.320;8.054;2022-12-16T21:38:52;49.27;;;23.27;;
35907;SDS011;22003;50.320;8.054;2022-12-16T21:41:36;43.10;;;21.93;;
35907;SDS011;22003;50.320;8.054;2022-12-16T21:44:20;47.23;;;21.67;;
35907;SDS011;22003;50.320;8.054;2022-12-16T21:47:03;37.23;;;18.67;;
35907;SDS011;22003;50.320;8.054;2022-12-16T21:49:48;43.27;;;21.83;;
35907;SDS011;22003;50.320;8.054;2022-12-16T21:52:31;40.03;;;21.00;;
35907;SDS011;22003;50.320;8.054;2022-12-16T21:55:15;39.80;;;20.10;;
35907;SDS011;22003;50.320;8.054;2022-12-16T21:57:59;36.80;;;20.17;;
35907;SDS011;22003;50.320;8.054;2022-12-16T22:00:43;42.30;;;18.93;;
35907;SDS011;22003;50.320;8.054;2022-12-16T22:03:34;38.63;;;19.20;;
35907;SDS011;22003;50.320;8.054;2022-12-16T22:06:18;37.77;;;18.10;;
35907;SDS011;22003;50.320;8.054;2022-12-16T22:09:02;42.70;;;18.63;;
35907;SDS011;22003;50.320;8.054;2022-12-16T22:11:46;38.27;;;19.27;;
35907;SDS011;22003;50.320;8.054;2022-12-16T22:14:30;43.00;;;20.63;;
35907;SDS011;22003;50.320;8.054;2022-12-16T22:17:14;48.73;;;22.97;;
35907;SDS011;22003;50.320;8.054;2022-12-16T22:19:58;45.80;;;21.70;;
35907;SDS011;22003;50.320;8.054;2022-12-16T22:22:42;51.50;;;23.37;;
35907;SDS011;22003;50.320;8.054;2022-12-16T22:25:26;54.33;;;24.37;;
35907;SDS011;22003;50.320;8.054;2022-12-16T22:28:10;52.17;;;23.77;;
35907;SDS011;22003;50.320;8.054;2022-12-16T22:30:54;52.43;;;22.47;;
35907;SDS011;22003;50.320;8.054;2022-12-16T22:33:39;50.80;;;22.83;;
35907;SDS011;22003;50.320;8.054;2022-12-16T22:36:23;49.53;;;22.37;;